sensor_id;sensor_type;location;lat;lon;timestamp;pressure;altitude;pressure_sealevel;temperature;humidity
72558;BME280;60583;50.094;8.748;2022-10-13T00:01:19;101064.13;;;10.14;84.82
72558;BME280;60583;50.094;8.748;2022-10-13T00:03:45;101054.78;;;10.10;85.05
72558;BME280;60583;50.094;8.748;2022-10-13T00:06:13;101042.69;;;10.00;84.81
72558;BME280;60583;50.094;8.748;2022-10-13T00:08:40;101047.22;;;9.99;85.64
72558;BME280;60583;50.094;8.748;2022-10-13T00:11:15;101054.81;;;10.02;86.46
72558;BME280;60583;50.094;8.748;2022-10-13T00:13:41;101055.84;;;10.01;86.67
72558;BME280;60583;50.094;8.748;2022-10-13T00:16:07;101068.59;;;10.14;87.26
72558;BME280;60583;50.094;8.748;2022-10-13T00:18:33;101074.34;;;10.25;87.41
72558;BME280;60583;50.094;8.748;2022-10-13T00:20:58;101041.13;;;10.13;86.56
72558;BME280;60583;50.094;8.748;2022-10-13T00:23:24;101069.56;;;10.36;86.11
72558;BME280;60583;50.094;8.748;2022-10-13T00:25:49;101072.53;;;10.41;85.78
72558;BME280;60583;50.094;8.748;2022-10-13T00:28:17;101067.13;;;10.49;85.20
72558;BME280;60583;50.094;8.748;2022-10-13T00:30:43;101065.31;;;10.49;84.48
72558;BME280;60583;50.094;8.748;2022-10-13T00:33:10;101062.44;;;10.51;83.87
72558;BME280;60583;50.094;8.748;2022-10-13T00:35:41;101066.09;;;10.50;84.33
72558;BME280;60583;50.094;8.748;2022-10-13T00:38:06;101063.72;;;10.55;83.82
72558;BME280;60583;50.094;8.748;2022-10-13T00:40:32;101063.28;;;10.51;84.54
72558;BME280;60583;50.094;8.748;2022-10-13T00:42:57;101059.41;;;10.39;84.33
72558;BME280;60583;50.094;8.748;2022-10-13T00:45:26;101067.91;;;10.35;84.59
72558;BME280;60583;50.094;8.748;2022-10-13T00:47:56;101063.31;;;10.29;84.72
72558;BME280;60583;50.094;8.748;2022-10-13T00:50:27;101073.97;;;10.29;84.90
72558;BME280;60583;50.094;8.748;2022-10-13T00:52:55;101066.97;;;10.27;84.84
72558;BME280;60583;50.094;8.748;2022-10-13T00:55:25;101079.31;;;10.29;85.01
72558;BME280;60583;50.094;8.748;2022-10-13T00:57:52;101082.03;;;10.20;84.92
72558;BME280;60583;50.094;8.748;2022-10-13T01:00:23;101069.75;;;10.11;84.65
72558;BME280;60583;50.094;8.748;2022-10-13T01:02:49;101076.44;;;10.07;84.63
72558;BME280;60583;50.094;8.748;2022-10-13T01:05:15;101064.28;;;9.82;85.19
72558;BME280;60583;50.094;8.748;2022-10-13T01:07:41;101048.75;;;9.94;84.85
72558;BME280;60583;50.094;8.748;2022-10-13T01:10:06;101062.78;;;9.88;84.58
72558;BME280;60583;50.094;8.748;2022-10-13T01:12:49;101055.50;;;9.82;84.51
72558;BME280;60583;50.094;8.748;2022-10-13T01:15:31;101060.63;;;9.83;84.30
72558;BME280;60583;50.094;8.748;2022-10-13T01:31:45;101059.16;;;9.81;84.52
72558;BME280;60583;50.094;8.748;2022-10-13T01:34:22;101052.66;;;9.83;84.47
72558;BME280;60583;50.094;8.748;2022-10-13T01:37:29;101052.53;;;9.77;84.48
72558;BME280;60583;50.094;8.748;2022-10-13T01:40:24;101042.59;;;9.71;84.51
72558;BME280;60583;50.094;8.748;2022-10-13T01:43:01;101049.03;;;9.76;84.76
72558;BME280;60583;50.094;8.748;2022-10-13T01:45:32;101045.31;;;9.85;84.33
72558;BME280;60583;50.094;8.748;2022-10-13T01:48:00;101043.28;;;9.87;84.16
72558;BME280;60583;50.094;8.748;2022-10-13T01:50:28;101052.66;;;9.83;84.44
72558;BME280;60583;50.094;8.748;2022-10-13T01:52:54;101047.88;;;9.79;84.26
72558;BME280;60583;50.094;8.748;2022-10-13T01:55:20;101053.50;;;9.84;83.95
72558;BME280;60583;50.094;8.748;2022-10-13T01:57:46;101045.78;;;9.89;84.46
72558;BME280;60583;50.094;8.748;2022-10-13T02:00:14;101034.31;;;9.88;84.41
72558;BME280;60583;50.094;8.748;2022-10-13T02:06:01;101030.34;;;9.84;83.91
72558;BME280;60583;50.094;8.748;2022-10-13T02:08:54;101039.38;;;9.75;84.26
72558;BME280;60583;50.094;8.748;2022-10-13T02:11:21;101041.09;;;9.68;84.56
72558;BME280;60583;50.094;8.748;2022-10-13T02:14:00;101041.41;;;9.73;84.21
72558;BME280;60583;50.094;8.748;2022-10-13T02:16:30;101034.63;;;9.62;84.18
72558;BME280;60583;50.094;8.748;2022-10-13T02:18:56;101027.59;;;9.70;84.50
72558;BME280;60583;50.094;8.748;2022-10-13T02:21:22;101035.81;;;9.60;84.67
72558;BME280;60583;50.094;8.748;2022-10-13T02:23:48;101027.38;;;9.56;84.57
72558;BME280;60583;50.094;8.748;2022-10-13T02:26:13;101023.69;;;9.57;85.13
72558;BME280;60583;50.094;8.748;2022-10-13T02:28:39;101026.50;;;9.64;84.91
72558;BME280;60583;50.094;8.748;2022-10-13T02:31:07;100987.66;;;9.47;84.67
72558;BME280;60583;50.094;8.748;2022-10-13T02:33:33;101020.78;;;9.67;84.33
72558;BME280;60583;50.094;8.748;2022-10-13T02:35:58;101022.81;;;9.65;84.45
72558;BME280;60583;50.094;8.748;2022-10-13T02:38:24;101017.72;;;9.55;84.44
72558;BME280;60583;50.094;8.748;2022-10-13T02:40:49;101016.19;;;9.61;84.59
72558;BME280;60583;50.094;8.748;2022-10-13T02:43:15;101009.53;;;9.57;84.71
72558;BME280;60583;50.094;8.748;2022-10-13T02:45:40;101004.59;;;9.54;84.62
72558;BME280;60583;50.094;8.748;2022-10-13T02:48:06;101003.75;;;9.53;84.86
72558;BME280;60583;50.094;8.748;2022-10-13T02:50:31;101015.91;;;9.56;84.79
72558;BME280;60583;50.094;8.748;2022-10-13T02:52:57;101003.56;;;9.55;84.73
72558;BME280;60583;50.094;8.748;2022-10-13T02:55:22;101008.91;;;9.55;84.89
72558;BME280;60583;50.094;8.748;2022-10-13T02:57:48;101009.25;;;9.52;85.26
72558;BME280;60583;50.094;8.748;2022-10-13T03:00:14;101006.88;;;9.57;85.16
72558;BME280;60583;50.094;8.748;2022-10-13T03:02:39;101005.34;;;9.62;84.73
72558;BME280;60583;50.094;8.748;2022-10-13T03:05:05;101007.91;;;9.56;85.47
72558;BME280;60583;50.094;8.748;2022-10-13T03:07:30;101017.53;;;9.57;85.74
72558;BME280;60583;50.094;8.748;2022-10-13T03:09:56;101008.91;;;9.55;85.87
72558;BME280;60583;50.094;8.748;2022-10-13T03:12:21;101009.19;;;9.60;85.60
72558;BME280;60583;50.094;8.748;2022-10-13T03:14:47;101011.75;;;9.53;86.14
72558;BME280;60583;50.094;8.748;2022-10-13T03:17:12;101001.84;;;9.62;86.10
72558;BME280;60583;50.094;8.748;2022-10-13T03:19:38;101006.19;;;9.63;88.00
72558;BME280;60583;50.094;8.748;2022-10-13T03:22:03;101006.47;;;9.68;88.39
72558;BME280;60583;50.094;8.748;2022-10-13T03:24:29;101009.97;;;9.69;88.54
72558;BME280;60583;50.094;8.748;2022-10-13T03:26:54;101005.31;;;9.71;88.32
72558;BME280;60583;50.094;8.748;2022-10-13T03:29:20;101008.16;;;9.69;88.03
72558;BME280;60583;50.094;8.748;2022-10-13T03:31:46;101009.16;;;9.68;88.40
72558;BME280;60583;50.094;8.748;2022-10-13T03:34:14;101007.66;;;9.66;89.20
72558;BME280;60583;50.094;8.748;2022-10-13T03:36:40;100982.47;;;9.53;88.70
72558;BME280;60583;50.094;8.748;2022-10-13T03:39:05;101000.81;;;9.71;88.80
72558;BME280;60583;50.094;8.748;2022-10-13T03:41:31;101000.56;;;9.58;90.29
72558;BME280;60583;50.094;8.748;2022-10-13T03:43:56;101004.94;;;9.51;90.62
72558;BME280;60583;50.094;8.748;2022-10-13T03:46:23;100990.75;;;9.58;90.72
72558;BME280;60583;50.094;8.748;2022-10-13T03:48:50;100998.38;;;9.61;91.81
72558;BME280;60583;50.094;8.748;2022-10-13T03:51:18;100992.28;;;9.53;91.95
72558;BME280;60583;50.094;8.748;2022-10-13T03:53:44;100999.88;;;9.64;91.37
72558;BME280;60583;50.094;8.748;2022-10-13T03:56:13;101000.06;;;9.54;92.16
72558;BME280;60583;50.094;8.748;2022-10-13T03:58:38;100998.75;;;9.58;92.50
72558;BME280;60583;50.094;8.748;2022-10-13T04:01:05;101004.16;;;9.65;92.30
72558;BME280;60583;50.094;8.748;2022-10-13T04:03:32;101004.22;;;9.57;92.74
72558;BME280;60583;50.094;8.748;2022-10-13T04:06:02;101003.19;;;9.66;92.94
72558;BME280;60583;50.094;8.748;2022-10-13T04:08:29;101019.75;;;9.76;92.78
72558;BME280;60583;50.094;8.748;2022-10-13T04:10:59;101018.38;;;9.80;93.30
72558;BME280;60583;50.094;8.748;2022-10-13T04:13:24;101016.66;;;9.87;92.61
72558;BME280;60583;50.094;8.748;2022-10-13T04:15:50;101019.03;;;9.82;93.71
72558;BME280;60583;50.094;8.748;2022-10-13T04:18:15;101013.00;;;9.88;93.37
72558;BME280;60583;50.094;8.748;2022-10-13T04:20:41;101004.00;;;9.89;93.50
72558;BME280;60583;50.094;8.748;2022-10-13T04:23:06;101004.34;;;9.86;94.68
72558;BME280;60583;50.094;8.748;2022-10-13T04:25:38;100996.13;;;9.96;94.03
72558;BME280;60583;50.094;8.748;2022-10-13T04:28:05;101002.09;;;9.98;93.94
72558;BME280;60583;50.094;8.748;2022-10-13T04:30:34;101007.31;;;9.91;94.57
72558;BME280;60583;50.094;8.748;2022-10-13T04:32:59;101000.31;;;9.90;94.62
72558;BME280;60583;50.094;8.748;2022-10-13T04:35:25;101009.63;;;9.94;94.94
72558;BME280;60583;50.094;8.748;2022-10-13T04:37:50;101013.94;;;9.95;94.85
72558;BME280;60583;50.094;8.748;2022-10-13T04:40:15;101019.78;;;9.91;94.91
72558;BME280;60583;50.094;8.748;2022-10-13T04:42:41;101017.72;;;9.78;95.81
72558;BME280;60583;50.094;8.748;2022-10-13T04:45:07;101018.31;;;9.88;95.44
72558;BME280;60583;50.094;8.748;2022-10-13T04:47:33;101013.81;;;9.89;95.24
72558;BME280;60583;50.094;8.748;2022-10-13T04:49:59;101010.88;;;9.84;95.37
72558;BME280;60583;50.094;8.748;2022-10-13T04:52:24;101015.00;;;9.86;95.40
72558;BME280;60583;50.094;8.748;2022-10-13T04:54:49;101005.41;;;9.77;96.04
72558;BME280;60583;50.094;8.748;2022-10-13T04:57:15;101007.72;;;9.80;95.52
72558;BME280;60583;50.094;8.748;2022-10-13T04:59:40;101012.06;;;9.81;95.66
72558;BME280;60583;50.094;8.748;2022-10-13T05:02:05;101012.06;;;9.81;95.63
72558;BME280;60583;50.094;8.748;2022-10-13T05:04:31;101005.88;;;9.81;95.71
72558;BME280;60583;50.094;8.748;2022-10-13T05:06:56;101001.06;;;9.84;95.15
72558;BME280;60583;50.094;8.748;2022-10-13T05:09:21;100987.34;;;9.87;94.87
72558;BME280;60583;50.094;8.748;2022-10-13T05:11:47;100995.28;;;9.73;95.70
72558;BME280;60583;50.094;8.748;2022-10-13T05:14:12;100982.91;;;9.80;95.46
72558;BME280;60583;50.094;8.748;2022-10-13T05:16:37;100986.72;;;9.85;95.06
72558;BME280;60583;50.094;8.748;2022-10-13T05:19:03;100991.75;;;9.80;94.96
72558;BME280;60583;50.094;8.748;2022-10-13T05:21:28;100981.28;;;9.79;95.26
72558;BME280;60583;50.094;8.748;2022-10-13T05:23:55;100979.06;;;9.82;95.31
72558;BME280;60583;50.094;8.748;2022-10-13T05:26:23;100979.19;;;9.89;94.60
72558;BME280;60583;50.094;8.748;2022-10-13T05:28:53;100977.06;;;9.84;95.22
72558;BME280;60583;50.094;8.748;2022-10-13T05:31:21;100972.09;;;9.81;95.41
72558;BME280;60583;50.094;8.748;2022-10-13T05:33:47;100968.59;;;9.81;95.30
72558;BME280;60583;50.094;8.748;2022-10-13T05:36:16;100967.97;;;9.79;95.73
72558;BME280;60583;50.094;8.748;2022-10-13T05:38:42;100939.44;;;9.64;96.05
72558;BME280;60583;50.094;8.748;2022-10-13T05:41:10;100968.34;;;9.90;95.21
72558;BME280;60583;50.094;8.748;2022-10-13T05:43:38;100965.06;;;10.03;94.48
72558;BME280;60583;50.094;8.748;2022-10-13T05:46:03;100969.19;;;10.13;94.48
72558;BME280;60583;50.094;8.748;2022-10-13T05:48:30;100969.81;;;10.15;94.60
72558;BME280;60583;50.094;8.748;2022-10-13T05:50:56;100966.53;;;10.05;95.01
72558;BME280;60583;50.094;8.748;2022-10-13T05:53:25;100963.53;;;10.08;94.62
72558;BME280;60583;50.094;8.748;2022-10-13T05:55:53;100956.53;;;10.07;95.18
72558;BME280;60583;50.094;8.748;2022-10-13T05:58:20;100961.38;;;10.12;94.83
72558;BME280;60583;50.094;8.748;2022-10-13T06:00:46;100956.97;;;10.19;94.09
72558;BME280;60583;50.094;8.748;2022-10-13T06:03:15;100960.75;;;10.24;93.67
72558;BME280;60583;50.094;8.748;2022-10-13T06:05:42;100956.06;;;10.27;93.76
72558;BME280;60583;50.094;8.748;2022-10-13T06:08:12;100950.53;;;10.28;93.39
72558;BME280;60583;50.094;8.748;2022-10-13T06:10:38;100946.59;;;10.24;93.63
72558;BME280;60583;50.094;8.748;2022-10-13T06:13:04;100950.09;;;10.24;93.74
72558;BME280;60583;50.094;8.748;2022-10-13T06:15:30;100947.22;;;10.26;93.74
72558;BME280;60583;50.094;8.748;2022-10-13T06:17:55;100940.78;;;10.20;94.37
72558;BME280;60583;50.094;8.748;2022-10-13T06:20:20;100935.53;;;10.12;95.17
72558;BME280;60583;50.094;8.748;2022-10-13T06:22:46;100942.63;;;10.20;94.58
72558;BME280;60583;50.094;8.748;2022-10-13T06:25:14;100952.91;;;10.23;94.06
72558;BME280;60583;50.094;8.748;2022-10-13T06:27:39;100951.38;;;10.29;93.60
72558;BME280;60583;50.094;8.748;2022-10-13T06:30:05;100964.50;;;10.30;94.07
72558;BME280;60583;50.094;8.748;2022-10-13T06:32:30;100966.88;;;10.25;94.05
72558;BME280;60583;50.094;8.748;2022-10-13T06:34:56;100962.38;;;10.25;93.86
72558;BME280;60583;50.094;8.748;2022-10-13T06:37:21;100964.69;;;10.29;93.82
72558;BME280;60583;50.094;8.748;2022-10-13T06:39:47;100968.09;;;10.37;93.40
72558;BME280;60583;50.094;8.748;2022-10-13T06:42:12;100971.22;;;10.41;93.90
72558;BME280;60583;50.094;8.748;2022-10-13T06:44:37;100960.47;;;10.49;93.57
72558;BME280;60583;50.094;8.748;2022-10-13T06:47:03;100965.88;;;10.55;93.13
72558;BME280;60583;50.094;8.748;2022-10-13T06:49:29;100974.09;;;10.54;92.89
72558;BME280;60583;50.094;8.748;2022-10-13T06:51:54;100974.81;;;10.48;93.80
72558;BME280;60583;50.094;8.748;2022-10-13T06:54:20;100963.22;;;10.41;93.53
72558;BME280;60583;50.094;8.748;2022-10-13T06:56:45;100947.03;;;10.27;94.45
72558;BME280;60583;50.094;8.748;2022-10-13T06:59:11;100969.13;;;10.51;93.70
72558;BME280;60583;50.094;8.748;2022-10-13T07:01:36;100975.56;;;10.56;93.58
72558;BME280;60583;50.094;8.748;2022-10-13T07:04:02;100976.94;;;10.67;93.47
72558;BME280;60583;50.094;8.748;2022-10-13T07:06:27;100980.16;;;10.77;92.30
72558;BME280;60583;50.094;8.748;2022-10-13T07:08:53;100970.50;;;10.76;92.89
72558;BME280;60583;50.094;8.748;2022-10-13T07:11:18;100967.63;;;10.77;92.81
72558;BME280;60583;50.094;8.748;2022-10-13T07:13:43;100978.03;;;10.72;93.37
72558;BME280;60583;50.094;8.748;2022-10-13T07:16:09;100972.53;;;10.74;92.82
72558;BME280;60583;50.094;8.748;2022-10-13T07:18:35;100974.16;;;10.75;93.14
72558;BME280;60583;50.094;8.748;2022-10-13T07:21:01;100972.53;;;10.74;93.39
72558;BME280;60583;50.094;8.748;2022-10-13T07:23:27;100974.16;;;10.75;93.37
72558;BME280;60583;50.094;8.748;2022-10-13T07:25:53;100983.72;;;10.84;93.45
72558;BME280;60583;50.094;8.748;2022-10-13T07:28:21;100983.38;;;10.87;93.43
72558;BME280;60583;50.094;8.748;2022-10-13T07:30:47;100975.25;;;10.95;92.57
72558;BME280;60583;50.094;8.748;2022-10-13T07:33:12;100974.31;;;11.03;92.62
72558;BME280;60583;50.094;8.748;2022-10-13T07:35:38;100966.13;;;11.04;91.84
72558;BME280;60583;50.094;8.748;2022-10-13T07:38:04;100960.50;;;11.14;92.72
72558;BME280;60583;50.094;8.748;2022-10-13T07:40:29;100954.22;;;11.21;92.00
72558;BME280;60583;50.094;8.748;2022-10-13T07:42:55;100946.66;;;11.25;91.79
72558;BME280;60583;50.094;8.748;2022-10-13T07:45:21;100947.72;;;11.30;91.65
72558;BME280;60583;50.094;8.748;2022-10-13T07:47:46;100945.97;;;11.37;91.16
72558;BME280;60583;50.094;8.748;2022-10-13T07:50:11;100949.06;;;11.41;90.74
72558;BME280;60583;50.094;8.748;2022-10-13T07:52:37;100961.84;;;11.45;90.73
72558;BME280;60583;50.094;8.748;2022-10-13T07:55:03;100961.34;;;11.35;91.47
72558;BME280;60583;50.094;8.748;2022-10-13T07:57:28;100958.50;;;11.37;90.85
72558;BME280;60583;50.094;8.748;2022-10-13T07:59:53;100954.78;;;11.38;91.29
72558;BME280;60583;50.094;8.748;2022-10-13T08:02:19;100954.78;;;11.38;91.68
72558;BME280;60583;50.094;8.748;2022-10-13T08:04:44;100953.66;;;11.47;91.34
72558;BME280;60583;50.094;8.748;2022-10-13T08:07:10;100958.16;;;11.25;92.26
72558;BME280;60583;50.094;8.748;2022-10-13T08:09:36;100959.19;;;11.24;92.55
72558;BME280;60583;50.094;8.748;2022-10-13T08:12:01;100962.78;;;11.38;91.90
72558;BME280;60583;50.094;8.748;2022-10-13T08:14:28;100967.66;;;11.49;92.71
72558;BME280;60583;50.094;8.748;2022-10-13T08:16:53;100964.03;;;11.57;92.07
72558;BME280;60583;50.094;8.748;2022-10-13T08:19:19;100957.94;;;11.63;91.86
72558;BME280;60583;50.094;8.748;2022-10-13T08:21:46;100961.41;;;11.78;90.98
72558;BME280;60583;50.094;8.748;2022-10-13T08:24:14;100965.19;;;11.90;90.67
72558;BME280;60583;50.094;8.748;2022-10-13T08:26:40;100955.88;;;11.86;91.13
72558;BME280;60583;50.094;8.748;2022-10-13T08:29:06;100960.34;;;12.00;90.51
72558;BME280;60583;50.094;8.748;2022-10-13T08:31:31;100956.13;;;12.12;90.26
72558;BME280;60583;50.094;8.748;2022-10-13T08:33:57;100955.88;;;12.07;89.47
72558;BME280;60583;50.094;8.748;2022-10-13T08:36:22;100952.81;;;12.10;88.99
72558;BME280;60583;50.094;8.748;2022-10-13T08:38:48;100962.09;;;12.14;89.12
72558;BME280;60583;50.094;8.748;2022-10-13T08:41:19;100971.19;;;12.20;88.92
72558;BME280;60583;50.094;8.748;2022-10-13T08:43:52;100961.50;;;12.18;89.17
72558;BME280;60583;50.094;8.748;2022-10-13T08:46:34;100963.78;;;12.22;88.94
72558;BME280;60583;50.094;8.748;2022-10-13T08:49:04;100955.16;;;12.26;89.45
72558;BME280;60583;50.094;8.748;2022-10-13T08:51:30;100946.53;;;12.24;89.46
72558;BME280;60583;50.094;8.748;2022-10-13T08:53:56;100941.56;;;12.21;89.58
72558;BME280;60583;50.094;8.748;2022-10-13T08:56:29;100933.13;;;12.18;88.68
72558;BME280;60583;50.094;8.748;2022-10-13T08:58:56;100926.97;;;12.24;88.72
72558;BME280;60583;50.094;8.748;2022-10-13T09:01:30;100931.31;;;12.25;88.62
72558;BME280;60583;50.094;8.748;2022-10-13T09:04:15;100939.22;;;12.39;87.46
72558;BME280;60583;50.094;8.748;2022-10-13T09:09:17;100946.00;;;12.35;88.07
72558;BME280;60583;50.094;8.748;2022-10-13T09:11:45;100948.19;;;12.25;88.15
72558;BME280;60583;50.094;8.748;2022-10-13T09:14:31;100944.69;;;12.25;88.59
72558;BME280;60583;50.094;8.748;2022-10-13T09:17:24;100954.78;;;12.29;88.58
72558;BME280;60583;50.094;8.748;2022-10-13T09:20:17;100956.06;;;12.33;89.25
72558;BME280;60583;50.094;8.748;2022-10-13T09:22:44;100955.66;;;12.36;89.03
72558;BME280;60583;50.094;8.748;2022-10-13T09:25:20;100950.28;;;12.30;89.33
72558;BME280;60583;50.094;8.748;2022-10-13T09:27:58;100949.53;;;12.42;88.46
72558;BME280;60583;50.094;8.748;2022-10-13T09:33:19;100950.72;;;12.33;89.19
72558;BME280;60583;50.094;8.748;2022-10-13T09:36:09;100953.34;;;12.27;89.12
72558;BME280;60583;50.094;8.748;2022-10-13T09:38:36;100958.50;;;12.28;88.96
72558;BME280;60583;50.094;8.748;2022-10-13T09:43:42;100956.69;;;12.35;89.53
72558;BME280;60583;50.094;8.748;2022-10-13T09:46:29;100959.38;;;12.35;89.32
72558;BME280;60583;50.094;8.748;2022-10-13T09:48:59;100957.94;;;12.39;89.23
72558;BME280;60583;50.094;8.748;2022-10-13T09:51:31;100958.56;;;12.41;88.86
72558;BME280;60583;50.094;8.748;2022-10-13T09:53:57;100959.84;;;12.45;88.48
72558;BME280;60583;50.094;8.748;2022-10-13T09:56:45;100960.44;;;12.41;89.43
72558;BME280;60583;50.094;8.748;2022-10-13T09:59:33;100957.31;;;12.37;89.30
72558;BME280;60583;50.094;8.748;2022-10-13T10:02:31;100953.03;;;12.43;89.04
72558;BME280;60583;50.094;8.748;2022-10-13T10:05:05;100948.66;;;12.35;89.41
72558;BME280;60583;50.094;8.748;2022-10-13T10:07:32;100937.34;;;12.33;89.59
72558;BME280;60583;50.094;8.748;2022-10-13T10:10:04;100936.38;;;12.41;89.84
72558;BME280;60583;50.094;8.748;2022-10-13T10:12:33;100954.50;;;12.45;89.18
72558;BME280;60583;50.094;8.748;2022-10-13T10:15:01;100951.72;;;12.32;89.64
72558;BME280;60583;50.094;8.748;2022-10-13T10:17:30;100947.00;;;12.34;89.95
72558;BME280;60583;50.094;8.748;2022-10-13T10:20:03;100940.25;;;12.38;90.47
72558;BME280;60583;50.094;8.748;2022-10-13T10:22:46;100936.41;;;12.47;89.73
72558;BME280;60583;50.094;8.748;2022-10-13T10:30:26;100944.25;;;12.55;89.40
72558;BME280;60583;50.094;8.748;2022-10-13T10:32:59;100939.56;;;12.64;89.30
72558;BME280;60583;50.094;8.748;2022-10-13T10:38:29;100935.47;;;12.68;88.75
72558;BME280;60583;50.094;8.748;2022-10-13T10:41:19;100934.09;;;12.78;88.27
72558;BME280;60583;50.094;8.748;2022-10-13T10:44:08;100925.75;;;13.01;87.46
72558;BME280;60583;50.094;8.748;2022-10-13T10:46:41;100919.72;;;12.93;87.61
72558;BME280;60583;50.094;8.748;2022-10-13T10:49:23;100917.22;;;12.85;88.77
72558;BME280;60583;50.094;8.748;2022-10-13T10:51:50;100909.41;;;12.90;88.43
72558;BME280;60583;50.094;8.748;2022-10-13T10:57:17;100915.53;;;12.70;89.39
72558;BME280;60583;50.094;8.748;2022-10-13T11:00:05;100898.06;;;12.81;89.10
72558;BME280;60583;50.094;8.748;2022-10-13T11:02:42;100895.41;;;12.88;88.66
72558;BME280;60583;50.094;8.748;2022-10-13T11:05:09;100891.72;;;12.95;88.42
72558;BME280;60583;50.094;8.748;2022-10-13T11:15:11;100863.31;;;14.38;81.81
72558;BME280;60583;50.094;8.748;2022-10-13T11:17:39;100860.31;;;14.66;80.92
72558;BME280;60583;50.094;8.748;2022-10-13T11:25:44;100839.41;;;14.24;82.11
72558;BME280;60583;50.094;8.748;2022-10-13T11:30:54;100848.16;;;14.63;80.91
72558;BME280;60583;50.094;8.748;2022-10-13T11:33:34;100844.44;;;14.58;80.94
72558;BME280;60583;50.094;8.748;2022-10-13T11:45:00;100831.25;;;15.57;76.64
72558;BME280;60583;50.094;8.748;2022-10-13T11:50:38;100810.31;;;16.20;73.92
72558;BME280;60583;50.094;8.748;2022-10-13T11:53:17;100800.72;;;16.60;72.29
72558;BME280;60583;50.094;8.748;2022-10-13T11:55:49;100806.97;;;16.72;72.17
72558;BME280;60583;50.094;8.748;2022-10-13T11:58:27;100780.59;;;16.63;71.58
72558;BME280;60583;50.094;8.748;2022-10-13T12:01:03;100784.38;;;16.07;74.47
72558;BME280;60583;50.094;8.748;2022-10-13T12:03:31;100779.97;;;15.94;74.68
72558;BME280;60583;50.094;8.748;2022-10-13T12:08:45;100788.31;;;15.68;76.01
72558;BME280;60583;50.094;8.748;2022-10-13T12:11:23;100793.31;;;15.65;76.43
72558;BME280;60583;50.094;8.748;2022-10-13T12:13:49;100783.25;;;15.60;76.94
72558;BME280;60583;50.094;8.748;2022-10-13T12:16:15;100780.72;;;15.65;76.70
72558;BME280;60583;50.094;8.748;2022-10-13T12:18:40;100790.75;;;15.52;76.68
72558;BME280;60583;50.094;8.748;2022-10-13T12:21:15;100790.84;;;15.39;77.63
72558;BME280;60583;50.094;8.748;2022-10-13T12:23:44;100790.06;;;15.31;77.93
72558;BME280;60583;50.094;8.748;2022-10-13T12:26:18;100779.75;;;15.28;78.37
72558;BME280;60583;50.094;8.748;2022-10-13T12:28:52;100793.91;;;15.17;78.44
72558;BME280;60583;50.094;8.748;2022-10-13T12:31:23;100797.72;;;15.03;78.93
72558;BME280;60583;50.094;8.748;2022-10-13T12:34:00;100793.56;;;15.07;79.10
72558;BME280;60583;50.094;8.748;2022-10-13T12:36:30;100775.47;;;14.96;79.61
72558;BME280;60583;50.094;8.748;2022-10-13T12:39:15;100780.28;;;14.88;80.77
72558;BME280;60583;50.094;8.748;2022-10-13T12:41:44;100780.50;;;14.86;80.69
72558;BME280;60583;50.094;8.748;2022-10-13T12:44:27;100787.53;;;14.81;80.67
72558;BME280;60583;50.094;8.748;2022-10-13T12:46:55;100784.66;;;14.82;80.98
72558;BME280;60583;50.094;8.748;2022-10-13T12:49:28;100783.69;;;15.01;80.83
72558;BME280;60583;50.094;8.748;2022-10-13T12:52:22;100780.81;;;15.03;80.72
72558;BME280;60583;50.094;8.748;2022-10-13T12:54:50;100767.16;;;15.54;79.00
72558;BME280;60583;50.094;8.748;2022-10-13T12:57:20;100770.81;;;15.59;78.13
72558;BME280;60583;50.094;8.748;2022-10-13T12:59:46;100768.66;;;15.50;79.00
72558;BME280;60583;50.094;8.748;2022-10-13T13:02:22;100766.00;;;15.43;78.69
72558;BME280;60583;50.094;8.748;2022-10-13T13:04:48;100761.09;;;15.33;78.89
72558;BME280;60583;50.094;8.748;2022-10-13T13:07:39;100756.22;;;15.24;79.62
72558;BME280;60583;50.094;8.748;2022-10-13T13:10:12;100756.19;;;15.30;79.59
72558;BME280;60583;50.094;8.748;2022-10-13T13:12:39;100754.22;;;15.19;79.41
72558;BME280;60583;50.094;8.748;2022-10-13T13:15:18;100760.44;;;15.13;79.75
72558;BME280;60583;50.094;8.748;2022-10-13T13:17:44;100757.16;;;15.11;80.27
72558;BME280;60583;50.094;8.748;2022-10-13T13:20:30;100771.25;;;15.07;80.53
72558;BME280;60583;50.094;8.748;2022-10-13T13:22:57;100754.22;;;14.88;81.32
72558;BME280;60583;50.094;8.748;2022-10-13T13:25:22;100750.34;;;14.84;81.11
72558;BME280;60583;50.094;8.748;2022-10-13T13:27:48;100739.19;;;14.87;81.62
72558;BME280;60583;50.094;8.748;2022-10-13T13:30:16;100741.88;;;14.87;81.34
72558;BME280;60583;50.094;8.748;2022-10-13T13:32:42;100733.38;;;14.90;81.50
72558;BME280;60583;50.094;8.748;2022-10-13T13:35:08;100730.25;;;14.93;81.07
72558;BME280;60583;50.094;8.748;2022-10-13T13:40:02;100748.13;;;15.06;81.05
72558;BME280;60583;50.094;8.748;2022-10-13T13:42:28;100744.88;;;14.97;80.82
72558;BME280;60583;50.094;8.748;2022-10-13T13:44:54;100741.16;;;14.98;81.15
72558;BME280;60583;50.094;8.748;2022-10-13T13:47:23;100737.00;;;15.02;80.98
72558;BME280;60583;50.094;8.748;2022-10-13T13:49:50;100736.78;;;15.04;81.11
72558;BME280;60583;50.094;8.748;2022-10-13T13:52:17;100728.19;;;15.20;80.39
72558;BME280;60583;50.094;8.748;2022-10-13T13:54:42;100705.97;;;15.06;80.63
72558;BME280;60583;50.094;8.748;2022-10-13T13:57:09;100722.97;;;15.00;81.12
72558;BME280;60583;50.094;8.748;2022-10-13T13:59:35;100736.84;;;14.97;81.41
72558;BME280;60583;50.094;8.748;2022-10-13T14:02:00;100737.84;;;15.03;81.62
72558;BME280;60583;50.094;8.748;2022-10-13T14:04:26;100732.47;;;15.03;81.36
72558;BME280;60583;50.094;8.748;2022-10-13T14:06:51;100733.00;;;15.11;81.03
72558;BME280;60583;50.094;8.748;2022-10-13T14:09:17;100722.84;;;15.13;80.88
72558;BME280;60583;50.094;8.748;2022-10-13T14:11:42;100731.38;;;15.10;81.24